Time;durP1;ratioP1;P1;durP2;ratioP2;P2;SDS_P1;SDS_P2;PMS_P1;PMS_P2;Temp;Humidity;BMP_temperature;BMP_pressure;BME280_temperature;BME280_humidity;BME280_pressure;Samples;Min_cycle;Max_cycle;Signal;HPM_P1;HPM_P2
2022/06/05 00:01:27;;;;;;;22.27;20.05;;;;;;;18.43;71.64;100687.53;4933637;28;101864;-81
2022/06/05 00:04:14;;;;;;;22.88;20.38;;;;;;;18.38;71.69;100682.47;4940227;28;101239;-79
2022/06/05 00:06:57;;;;;;;24.92;22.65;;;;;;;18.30;71.84;100676.78;4935378;28;96885;-89
2022/06/05 00:09:43;;;;;;;24.00;21.48;;;;;;;18.20;72.22;100678.28;4972377;28;97099;-81
2022/06/05 00:12:15;;;;;;;23.35;20.85;;;;;;;18.25;71.41;100679.72;4950688;28;101559;-79
2022/06/05 00:14:42;;;;;;;22.30;20.15;;;;;;;18.31;71.75;100675.84;4963403;28;101526;-85
2022/06/05 00:17:19;;;;;;;25.42;19.75;;;;;;;18.26;71.58;100670.78;4969921;28;96731;-81
2022/06/05 00:19:48;;;;;;;22.55;20.13;;;;;;;18.29;71.03;100673.25;4953792;28;97150;-79
2022/06/05 00:22:14;;;;;;;18.50;16.60;;;;;;;18.24;70.31;100669.19;4925732;28;101753;-79
2022/06/05 00:24:40;;;;;;;18.13;16.35;;;;;;;18.23;70.30;100676.28;4948041;28;101592;-79
2022/06/05 00:27:27;;;;;;;18.42;16.48;;;;;;;18.31;69.07;100676.69;4951541;28;96659;-80
2022/06/05 00:30:11;;;;;;;18.83;16.83;;;;;;;18.23;69.74;100670.13;4951135;28;97121;-79
2022/06/05 00:32:41;;;;;;;16.17;14.57;;;;;;;18.16;68.93;100669.66;4952654;28;97557;-79
2022/06/05 00:35:11;;;;;;;14.53;13.00;;;;;;;18.10;68.22;100649.63;4922326;28;101895;-79
2022/06/05 00:37:48;;;;;;;12.55;11.38;;;;;;;18.15;67.00;100651.13;4954277;28;97080;-78
2022/06/05 00:40:55;;;;;;;15.85;12.00;;;;;;;18.33;65.91;100661.50;4905021;28;96961;-78
2022/06/05 00:43:22;;;;;;;13.70;11.57;;;;;;;18.09;66.32;100639.06;4955073;28;101436;-79
2022/06/05 00:45:47;;;;;;;11.45;10.35;;;;;;;18.38;65.22;100668.34;4949036;28;100710;-79
2022/06/05 00:48:13;;;;;;;11.40;9.95;;;;;;;18.34;64.92;100659.69;4953276;28;96898;-78
2022/06/05 00:50:41;;;;;;;11.10;9.90;;;;;;;18.31;64.15;100659.88;4905733;28;97161;-82
2022/06/05 00:53:07;;;;;;;10.20;9.27;;;;;;;18.12;64.09;100640.69;4981048;28;98600;-87
2022/06/05 00:55:51;;;;;;;10.45;9.45;;;;;;;18.24;64.18;100658.56;4942681;28;97924;-79
2022/06/05 00:58:17;;;;;;;9.73;8.70;;;;;;;18.21;63.83;100654.28;4915168;28;97137;-78
2022/06/05 01:00:48;;;;;;;10.13;9.20;;;;;;;18.15;64.41;100661.75;4936565;28;97105;-84
2022/06/05 01:03:15;;;;;;;9.43;8.63;;;;;;;18.22;63.53;100657.78;4936073;28;98079;-79
2022/06/05 01:05:41;;;;;;;9.15;8.45;;;;;;;18.15;63.54;100652.00;4948418;28;97513;-78
2022/06/05 01:08:07;;;;;;;9.30;8.50;;;;;;;18.10;63.59;100643.44;4935386;28;96994;-78
2022/06/05 01:10:32;;;;;;;9.57;8.10;;;;;;;18.13;63.86;100659.22;4935537;28;97412;-78
2022/06/05 01:13:03;;;;;;;9.52;8.70;;;;;;;18.16;64.10;100658.16;4952973;28;98547;-79
2022/06/05 01:15:29;;;;;;;8.43;7.63;;;;;;;18.18;63.62;100651.81;4949684;28;98158;-78
2022/06/05 01:18:11;;;;;;;10.68;9.38;;;;;;;18.21;63.04;100654.28;4935859;28;97060;-80
2022/06/05 01:21:07;;;;;;;8.65;7.85;;;;;;;18.10;63.49;100662.03;4955392;28;96871;-80
2022/06/05 01:24:01;;;;;;;10.10;8.20;;;;;;;18.08;64.30;100667.44;4938649;28;101141;-79
2022/06/05 01:26:49;;;;;;;9.10;8.15;;;;;;;17.99;64.89;100662.69;4952739;28;101185;-78
2022/06/05 01:29:30;;;;;;;8.95;8.10;;;;;;;17.93;64.86;100671.00;4941667;28;96935;-78
2022/06/05 01:32:01;;;;;;;9.50;8.57;;;;;;;17.90;64.60;100665.03;4969421;28;97929;-79
2022/06/05 01:34:29;;;;;;;;;;;;;;;17.85;64.89;100674.09;4952767;28;98077;-78
2022/06/05 01:37:00;;;;;;;13.05;9.68;;;;;;;17.73;65.18;100665.97;4965207;28;101056;-79
2022/06/05 01:39:38;;;;;;;9.70;8.80;;;;;;;17.76;65.01;100671.97;4936304;28;96818;-78
2022/06/05 01:42:28;;;;;;;8.73;7.82;;;;;;;17.77;65.34;100673.69;4927539;28;97262;-78
2022/06/05 01:44:57;;;;;;;9.32;8.52;;;;;;;17.69;65.67;100649.38;4951328;28;101585;-79
2022/06/05 01:47:28;;;;;;;10.23;9.23;;;;;;;17.70;66.03;100661.72;4937634;28;101433;-80
2022/06/05 01:49:59;;;;;;;9.23;8.32;;;;;;;17.61;66.12;100663.09;4967357;28;97126;-78
2022/06/05 01:52:29;;;;;;;10.50;9.57;;;;;;;17.55;65.89;100644.88;4935699;28;97219;-78
2022/06/05 01:55:02;;;;;;;11.90;8.48;;;;;;;17.53;65.94;100648.56;4924210;28;101174;-78
2022/06/05 01:57:29;;;;;;;10.13;9.25;;;;;;;17.73;65.82;100661.53;4935743;28;101309;-79
2022/06/05 02:00:15;;;;;;;10.23;9.32;;;;;;;17.66;65.85;100665.50;4950871;28;96995;-79
2022/06/05 02:02:46;;;;;;;10.95;8.93;;;;;;;17.61;66.00;100664.91;4935505;28;96771;-79
2022/06/05 02:05:15;;;;;;;11.20;10.05;;;;;;;17.35;66.33;100650.47;4952641;28;98292;-80
2022/06/05 02:07:49;;;;;;;10.32;9.40;;;;;;;17.35;66.86;100672.56;4981806;28;97487;-81
2022/06/05 02:10:20;;;;;;;11.13;10.15;;;;;;;17.33;67.22;100671.78;4962852;28;97358;-82
2022/06/05 02:12:46;;;;;;;19.17;17.38;;;;;;;17.34;67.05;100672.66;4940722;28;96759;-81
2022/06/05 02:15:12;;;;;;;9.77;8.55;;;;;;;17.35;66.97;100663.75;4934559;28;101373;-79
2022/06/05 02:17:37;;;;;;;7.80;7.00;;;;;;;17.14;67.33;100656.06;4922784;28;101234;-79
2022/06/05 02:20:08;;;;;;;7.68;6.88;;;;;;;17.27;66.94;100665.97;4930091;28;97203;-78
2022/06/05 02:22:52;;;;;;;18.38;16.50;;;;;;;17.18;67.18;100665.53;4936860;28;96899;-79
2022/06/05 02:25:24;;;;;;;17.55;15.90;;;;;;;17.13;67.34;100658.78;4938348;28;97961;-78
2022/06/05 02:27:51;;;;;;;18.50;16.92;;;;;;;17.15;67.23;100663.06;4932118;28;99030;-82
2022/06/05 02:30:17;;;;;;;16.60;15.32;;;;;;;17.12;67.20;100657.06;4921215;28;96896;-79
2022/06/05 02:33:09;;;;;;;16.95;15.65;;;;;;;16.93;67.40;100636.03;4925922;28;97403;-81
2022/06/05 02:35:46;;;;;;;16.60;15.32;;;;;;;17.11;66.89;100668.63;4917995;28;101619;-79
2022/06/05 02:38:22;;;;;;;16.38;15.27;;;;;;;16.94;67.51;100648.34;4950650;28;101620;-79
2022/06/05 02:41:07;;;;;;;17.08;15.77;;;;;;;16.98;67.20;100653.38;4949731;28;96717;-85
2022/06/05 02:44:28;;;;;;;18.42;16.73;;;;;;;17.09;67.28;100675.81;4935197;28;97080;-80
2022/06/05 02:46:48;;;;;;;17.75;16.15;;;;;;;17.01;67.65;100664.78;4945519;28;98063;-78
2022/06/05 02:49:23;;;;;;;17.27;15.88;;;;;;;17.02;67.64;100666.50;4939027;28;100861;-79
2022/06/05 02:51:48;;;;;;;17.95;16.58;;;;;;;16.95;67.52;100661.50;4905952;28;96734;-83
2022/06/05 02:54:23;;;;;;;18.38;16.83;;;;;;;17.02;67.61;100670.00;4919353;28;96838;-79
2022/06/05 02:56:49;;;;;;;18.05;16.63;;;;;;;16.85;67.56;100654.16;4905116;28;101448;-81
2022/06/05 02:59:14;;;;;;;19.02;17.52;;;;;;;17.02;67.41;100670.00;4919470;28;101139;-79
2022/06/05 03:04:24;;;;;;;19.05;17.25;;;;;;;16.80;68.11;100669.47;4949507;28;97297;-84
2022/06/05 03:06:49;;;;;;;18.95;17.20;;;;;;;16.87;68.03;100670.81;4917295;28;98564;-80
2022/06/05 03:09:16;;;;;;;20.67;18.95;;;;;;;16.68;68.33;100685.06;4951179;28;101492;-79
2022/06/05 03:11:42;;;;;;;19.25;17.75;;;;;;;16.65;68.56;100677.25;4885943;28;97098;-79
2022/06/05 03:14:08;;;;;;;19.90;18.08;;;;;;;16.80;68.18;100674.75;4948258;28;97177;-80
2022/06/05 03:16:34;;;;;;;19.52;17.95;;;;;;;16.87;67.60;100681.44;4918395;28;101385;-79
2022/06/05 03:19:00;;;;;;;20.42;18.77;;;;;;;16.78;67.83;100677.47;4922882;28;101861;-79
2022/06/05 03:21:25;;;;;;;21.02;18.92;;;;;;;16.75;67.86;100678.50;4935129;28;96732;-79
2022/06/05 03:23:51;;;;;;;31.60;19.50;;;;;;;16.72;68.04;100691.88;4952663;28;96928;-79
2022/06/05 03:26:16;;;;;;;21.40;19.23;;;;;;;16.58;68.48;100686.50;4901182;28;97446;-79
2022/06/05 03:28:42;;;;;;;21.77;19.73;;;;;;;16.82;68.24;100710.00;4935342;28;101199;-79
2022/06/05 03:31:08;;;;;;;21.63;19.60;;;;;;;16.65;68.47;100702.91;4932775;28;97319;-80
2022/06/05 03:33:35;;;;;;;22.30;20.25;;;;;;;16.63;68.70;100702.97;4934192;28;96940;-79
2022/06/05 03:36:01;;;;;;;22.33;20.23;;;;;;;16.66;68.33;100705.47;4947261;28;101108;-80
2022/06/05 03:38:26;;;;;;;23.42;21.33;;;;;;;16.75;68.43;100717.38;4933491;28;101335;-79
2022/06/05 03:40:52;;;;;;;22.52;20.42;;;;;;;16.73;68.40;100717.47;4933706;28;97712;-79
2022/06/05 03:43:17;;;;;;;22.83;20.88;;;;;;;16.67;68.10;100706.34;4918468;28;96942;-79
2022/06/05 03:45:43;;;;;;;22.95;20.98;;;;;;;16.87;68.21;100738.00;4931392;28;101195;-79
2022/06/05 03:48:09;;;;;;;22.92;21.02;;;;;;;16.79;68.33;100726.09;4916760;28;101317;-79
2022/06/05 03:50:38;;;;;;;23.05;21.13;;;;;;;16.82;68.25;100723.25;4953304;28;96861;-81
2022/06/05 03:53:04;;;;;;;23.00;21.10;;;;;;;16.88;68.39;100731.72;4955201;28;97182;-79
2022/06/05 03:55:30;;;;;;;24.80;22.65;;;;;;;16.97;68.39;100722.44;4928975;28;98118;-79
2022/06/05 03:57:55;;;;;;;23.48;21.38;;;;;;;17.12;67.94;100724.22;4933075;28;101211;-79
2022/06/05 04:00:21;;;;;;;22.85;20.95;;;;;;;17.34;67.22;100731.88;4952784;28;96805;-79
2022/06/05 04:02:47;;;;;;;23.33;21.42;;;;;;;17.26;67.72;100730.59;4987554;28;97106;-79
2022/06/05 04:05:18;;;;;;;24.42;22.48;;;;;;;17.25;67.67;100727.09;4905247;28;101871;-79
2022/06/05 04:07:44;;;;;;;24.35;22.17;;;;;;;17.32;67.73;100722.28;4904483;28;101025;-82
2022/06/05 04:10:12;;;;;;;24.77;22.75;;;;;;;17.42;67.48;100727.00;4953560;28;96711;-78
2022/06/05 04:12:38;;;;;;;24.05;21.85;;;;;;;17.51;66.92;100720.31;4936277;28;97005;-79
2022/06/05 04:15:04;;;;;;;25.35;23.00;;;;;;;17.48;67.23;100727.56;4951672;28;98900;-79
2022/06/05 04:17:29;;;;;;;24.25;22.25;;;;;;;17.30;67.21;100713.53;4920882;28;101215;-79
2022/06/05 04:19:55;;;;;;;24.92;22.80;;;;;;;17.63;66.51;100730.25;4954120;28;96741;-79
2022/06/05 04:22:20;;;;;;;25.88;23.60;;;;;;;17.48;67.04;100704.53;4955581;28;96783;-79
2022/06/05 04:24:46;;;;;;;24.20;21.83;;;;;;;17.85;66.19;100734.34;4967037;28;97456;-81
2022/06/05 04:27:11;;;;;;;25.38;23.05;;;;;;;18.00;65.88;100735.25;4957660;28;97975;-79
2022/06/05 04:29:37;;;;;;;25.50;23.17;;;;;;;18.18;65.52;100733.28;4960185;28;97519;-79
2022/06/05 04:32:03;;;;;;;23.35;21.35;;;;;;;18.39;65.27;100732.03;4940930;28;96874;-79
2022/06/05 04:34:28;;;;;;;23.98;21.88;;;;;;;18.48;64.45;100727.97;4916708;28;101086;-79
2022/06/05 04:36:54;;;;;;;23.05;21.05;;;;;;;18.71;63.84;100732.72;4927737;28;98447;-80
2022/06/05 04:39:19;;;;;;;23.83;21.83;;;;;;;18.91;63.73;100751.97;4936805;28;96920;-81
2022/06/05 04:41:46;;;;;;;23.25;21.17;;;;;;;18.95;63.45;100735.72;4929187;28;97386;-79
2022/06/05 04:44:13;;;;;;;22.42;20.40;;;;;;;19.14;63.02;100729.22;4930681;28;98002;-79
2022/06/05 04:46:39;;;;;;;23.05;21.25;;;;;;;19.18;62.60;100725.44;4964180;28;101614;-79
2022/06/05 04:49:08;;;;;;;22.25;20.45;;;;;;;19.36;62.23;100720.72;4921557;28;96816;-79
2022/06/05 04:51:35;;;;;;;19.83;18.23;;;;;;;19.75;61.55;100732.44;4948482;28;97260;-79
2022/06/05 04:54:01;;;;;;;20.83;19.23;;;;;;;19.86;60.93;100727.25;4935733;28;101842;-79
2022/06/05 04:56:27;;;;;;;20.80;19.10;;;;;;;19.89;60.91;100711.91;4937347;28;97297;-79
2022/06/05 04:58:53;;;;;;;20.05;18.35;;;;;;;20.10;60.38;100730.94;4981548;28;96727;-84
2022/06/05 05:01:33;;;;;;;20.58;19.05;;;;;;;20.31;59.70;100739.31;4935363;28;97021;-79
2022/06/05 05:04:04;;;;;;;20.90;19.25;;;;;;;20.43;59.21;100726.94;4957006;28;101649;-81
2022/06/05 05:06:32;;;;;;;20.60;18.60;;;;;;;20.60;58.54;100727.63;4942246;28;101784;-79
2022/06/05 05:08:57;;;;;;;20.02;18.42;;;;;;;20.74;58.40;100722.16;4952704;28;96795;-79
2022/06/05 05:11:23;;;;;;;20.05;18.35;;;;;;;20.73;58.12;100701.78;4952774;28;97169;-81
2022/06/05 05:13:49;;;;;;;20.05;18.38;;;;;;;20.98;57.81;100724.94;4971531;28;101744;-80
2022/06/05 05:16:15;;;;;;;20.17;18.58;;;;;;;21.15;57.64;100721.06;4936142;28;101658;-80
2022/06/05 05:18:40;;;;;;;20.25;18.27;;;;;;;21.32;56.60;100719.81;4960440;28;96694;-79
2022/06/05 05:21:13;;;;;;;19.10;17.48;;;;;;;21.41;56.10;100716.50;4954985;28;96984;-79
2022/06/05 05:23:39;;;;;;;19.00;17.23;;;;;;;21.55;56.36;100707.47;4950975;28;98137;-79
2022/06/05 05:26:13;;;;;;;18.85;17.23;;;;;;;21.72;55.97;100717.75;4937190;28;101366;-80
2022/06/05 05:28:39;;;;;;;18.52;17.13;;;;;;;21.96;55.54;100717.75;4958601;28;96931;-79
2022/06/05 05:31:10;;;;;;;18.17;16.75;;;;;;;22.04;54.64;100704.66;4953694;28;97289;-79
2022/06/05 05:33:37;;;;;;;17.80;16.50;;;;;;;22.29;54.26;100713.53;4917546;28;98833;-79
2022/06/05 05:36:02;;;;;;;17.15;15.77;;;;;;;22.44;53.93;100712.31;4934838;28;101499;-79
2022/06/05 05:38:28;;;;;;;17.45;15.93;;;;;;;22.63;53.68;100710.88;4926028;28;97380;-79
2022/06/05 05:43:37;;;;;;;16.63;15.45;;;;;;;23.06;52.27;100705.69;4953757;28;101518;-79
2022/06/05 05:46:08;;;;;;;17.23;15.80;;;;;;;23.39;51.27;100707.47;4968918;28;98349;-80
2022/06/05 05:48:33;;;;;;;15.73;14.63;;;;;;;23.73;49.32;100699.34;4935272;28;96997;-80
2022/06/05 05:50:59;;;;;;;16.40;14.82;;;;;;;24.00;47.71;100681.91;4936045;28;96958;-80
2022/06/05 05:53:24;;;;;;;15.32;14.13;;;;;;;24.49;46.03;100675.91;4935856;28;97356;-79
2022/06/05 05:55:50;;;;;;;14.98;13.98;;;;;;;25.64;44.81;100681.78;4935397;28;101181;-82
2022/06/05 05:58:15;;;;;;;14.80;13.80;;;;;;;26.62;43.43;100680.69;4915272;28;98290;-83
2022/06/05 06:00:40;;;;;;;13.95;13.07;;;;;;;27.62;41.58;100670.06;4895633;28;97047;-84
2022/06/05 06:03:06;;;;;;;15.38;13.93;;;;;;;27.67;38.97;100671.31;4963950;28;97941;-84
2022/06/05 06:05:32;;;;;;;14.35;13.45;;;;;;;28.05;39.33;100671.13;4930613;28;98552;-84
2022/06/05 06:07:58;;;;;;;14.75;13.77;;;;;;;28.93;38.09;100658.31;4929953;28;97533;-83
2022/06/05 06:10:23;;;;;;;14.88;13.68;;;;;;;29.71;35.82;100665.31;4941027;28;96846;-83
2022/06/05 06:12:49;;;;;;;14.70;13.70;;;;;;;29.97;35.13;100654.31;4964914;28;97541;-83
2022/06/05 06:15:14;;;;;;;15.10;14.10;;;;;;;30.47;34.69;100655.94;4937879;28;98213;-85
2022/06/05 06:17:40;;;;;;;14.30;13.25;;;;;;;31.09;33.94;100661.47;4914566;28;96861;-84
2022/06/05 06:20:06;;;;;;;14.65;13.55;;;;;;;31.19;33.07;100644.97;4951042;28;96858;-85
2022/06/05 06:22:32;;;;;;;14.05;13.05;;;;;;;31.84;32.94;100656.41;4943073;28;101890;-84
2022/06/05 06:24:58;;;;;;;14.07;13.00;;;;;;;32.31;31.88;100650.72;4955579;28;101680;-85
2022/06/05 06:27:23;;;;;;;12.93;11.90;;;;;;;33.06;31.21;100652.41;4923248;28;97948;-84
2022/06/05 06:29:49;;;;;;;13.82;12.82;;;;;;;33.14;30.44;100637.84;4912005;28;97064;-84
2022/06/05 06:32:14;;;;;;;14.73;13.60;;;;;;;33.16;29.59;100645.81;4968188;28;98330;-85
2022/06/05 06:34:40;;;;;;;14.13;12.88;;;;;;;33.48;30.24;100647.19;4954481;28;97416;-85
2022/06/05 06:37:05;;;;;;;13.82;12.93;;;;;;;33.86;29.67;100647.81;4949564;28;97180;-81
2022/06/05 06:39:31;;;;;;;14.18;12.93;;;;;;;33.92;28.79;100657.91;4932064;28;97536;-85
2022/06/05 06:41:56;;;;;;;15.77;13.02;;;;;;;34.78;28.92;100656.81;4951431;28;97556;-88
2022/06/05 06:44:22;;;;;;;14.35;12.95;;;;;;;35.24;27.63;100648.00;4931769;28;100202;-80
2022/06/05 06:46:48;;;;;;;13.77;12.68;;;;;;;35.34;27.95;100642.97;4966945;28;96904;-87
2022/06/05 06:49:14;;;;;;;13.82;12.82;;;;;;;34.10;31.32;100649.25;4948538;28;97501;-87
2022/06/05 06:51:40;;;;;;;13.60;12.68;;;;;;;34.71;29.01;100654.06;4969318;28;98573;-86
2022/06/05 06:54:06;;;;;;;13.77;12.88;;;;;;;35.59;27.19;100649.53;4934691;28;97848;-89
2022/06/05 06:56:33;;;;;;;13.60;12.50;;;;;;;35.86;27.64;100644.09;4938361;28;97173;-83
2022/06/05 06:59:00;;;;;;;13.05;11.98;;;;;;;36.02;26.46;100645.56;4938806;28;98232;-84
2022/06/05 07:01:25;;;;;;;13.10;12.15;;;;;;;36.74;25.70;100642.91;4936417;28;98026;-89
2022/06/05 07:03:51;;;;;;;13.05;12.15;;;;;;;36.46;25.58;100624.91;4937543;28;100141;-87
2022/06/05 07:06:17;;;;;;;13.02;12.13;;;;;;;36.38;25.52;100619.66;4922377;28;96838;-85
2022/06/05 07:08:43;;;;;;;13.20;12.27;;;;;;;36.74;25.12;100646.47;4945357;28;98443;-85
2022/06/05 07:11:11;;;;;;;12.95;12.15;;;;;;;35.95;25.45;100650.19;4949865;28;98659;-83
2022/06/05 07:13:37;;;;;;;13.98;13.07;;;;;;;36.62;25.12;100643.56;4942593;28;101062;-84
2022/06/05 07:16:05;;;;;;;16.15;15.00;;;;;;;36.94;25.48;100636.31;4949475;28;96868;-85
2022/06/05 07:18:31;;;;;;;11.15;10.50;;;;;;;36.55;24.84;100647.41;4954609;28;97246;-84
2022/06/05 07:20:56;;;;;;;13.07;12.07;;;;;;;36.43;25.32;100648.03;4936482;28;101174;-82
2022/06/05 07:23:22;;;;;;;12.63;11.88;;;;;;;36.28;25.34;100636.53;4935373;28;99190;-87
2022/06/05 07:25:50;;;;;;;12.75;11.85;;;;;;;36.42;24.75;100631.84;4923377;28;99997;-86
2022/06/05 07:28:17;;;;;;;12.77;11.98;;;;;;;36.17;25.26;100635.28;4936889;28;97699;-85
2022/06/05 07:30:46;;;;;;;12.18;11.27;;;;;;;36.85;25.29;100623.94;4953723;28;101199;-86
2022/06/05 07:33:12;;;;;;;13.40;12.45;;;;;;;37.33;24.66;100626.22;4949217;28;101003;-90
2022/06/05 07:35:38;;;;;;;12.93;12.00;;;;;;;36.88;24.52;100628.13;4929365;28;97312;-84
2022/06/05 07:38:04;;;;;;;13.18;12.38;;;;;;;36.46;24.72;100627.63;4933547;28;96984;-82
2022/06/05 07:40:29;;;;;;;13.00;11.95;;;;;;;36.50;25.00;100628.88;4945892;28;98749;-84
2022/06/05 07:42:55;;;;;;;12.35;11.65;;;;;;;36.31;25.77;100627.06;4950681;28;97969;-86
2022/06/05 07:45:20;;;;;;;13.20;12.40;;;;;;;36.49;24.89;100622.56;4967684;28;97338;-84
2022/06/05 07:47:46;;;;;;;13.95;12.95;;;;;;;36.96;24.52;100621.56;4959251;28;97187;-86
2022/06/05 07:50:13;;;;;;;11.95;11.13;;;;;;;37.35;23.96;100615.03;4929045;28;97449;-83
2022/06/05 07:55:23;;;;;;;11.93;11.23;;;;;;;35.51;25.98;100618.84;4953749;28;97845;-86
2022/06/05 07:57:48;;;;;;;12.75;11.85;;;;;;;35.76;26.33;100624.56;4943501;28;97038;-85
2022/06/05 08:00:14;;;;;;;12.93;12.10;;;;;;;36.40;25.63;100617.56;4924684;28;101196;-86
2022/06/05 08:02:40;;;;;;;12.98;11.88;;;;;;;36.04;25.89;100619.75;4923430;28;100403;-86
2022/06/05 08:05:06;;;;;;;12.90;12.15;;;;;;;36.34;25.38;100618.44;4969454;28;96769;-85
2022/06/05 08:07:33;;;;;;;12.60;11.80;;;;;;;36.52;25.40;100612.28;4956031;28;97888;-86
2022/06/05 08:09:59;;;;;;;13.07;12.27;;;;;;;36.27;25.78;100600.13;4938112;28;100731;-85
2022/06/05 08:12:29;;;;;;;12.90;12.10;;;;;;;36.52;25.59;100595.88;4963267;28;98476;-86
2022/06/05 08:14:54;;;;;;;;;;;;;;;35.60;26.20;100609.44;4959796;28;96942;-87
2022/06/05 08:17:23;;;;;;;13.50;12.52;;;;;;;35.05;26.72;100595.06;4977666;28;97202;-87
2022/06/05 08:19:49;;;;;;;13.53;12.60;;;;;;;35.49;26.89;100610.03;4928992;28;100282;-84
2022/06/05 08:22:17;;;;;;;11.07;10.27;;;;;;;34.97;26.41;100589.75;4954599;28;97431;-86
2022/06/05 08:24:42;;;;;;;11.60;10.80;;;;;;;35.72;26.38;100602.31;4932352;28;96893;-85
2022/06/05 08:27:10;;;;;;;13.02;11.77;;;;;;;35.38;26.31;100606.88;4941147;28;97511;-88
2022/06/05 08:29:36;;;;;;;13.30;12.50;;;;;;;35.21;26.52;100611.03;4923268;28;100943;-88
2022/06/05 08:32:03;;;;;;;12.90;12.10;;;;;;;35.09;27.03;100610.81;4935290;28;97934;-84
2022/06/05 08:34:28;;;;;;;12.70;11.80;;;;;;;35.17;26.84;100603.47;4945580;28;97234;-86
2022/06/05 08:42:41;;;;;;;12.93;12.13;;;;;;;34.36;27.86;100609.63;4952840;28;101117;-87
2022/06/05 08:45:16;;;;;;;12.90;12.00;;;;;;;34.85;27.74;100605.88;4922093;28;96812;-89
2022/06/05 08:47:55;;;;;;;12.85;11.93;;;;;;;33.76;28.54;100611.91;4971790;28;96982;-88
2022/06/05 08:50:36;;;;;;;12.07;11.27;;;;;;;33.62;28.59;100600.06;4918905;28;98692;-87
2022/06/05 08:53:45;;;;;;;12.65;11.75;;;;;;;33.44;29.47;100603.22;4905252;28;100313;-87
2022/06/05 08:56:14;;;;;;;12.82;11.68;;;;;;;33.30;28.99;100599.50;4889315;28;96783;-84
2022/06/05 08:58:53;;;;;;;11.57;10.57;;;;;;;32.63;29.51;100597.91;4915687;28;97191;-89
2022/06/05 09:01:48;;;;;;;11.33;10.63;;;;;;;32.55;29.90;100599.88;4945135;28;97758;-89
2022/06/05 09:04:36;;;;;;;11.55;10.70;;;;;;;32.58;29.61;100594.94;4930234;28;98500;-88
2022/06/05 09:07:05;;;;;;;11.60;10.63;;;;;;;32.44;30.23;100591.16;4919828;28;96923;-84
2022/06/05 09:09:40;;;;;;;11.65;10.73;;;;;;;31.65;30.50;100557.34;4926242;28;96915;-84
2022/06/05 09:12:26;;;;;;;11.82;10.85;;;;;;;30.30;31.75;100592.88;4926610;28;101543;-84
2022/06/05 09:15:02;;;;;;;11.65;10.85;;;;;;;29.64;33.71;100594.81;4928513;28;99919;-85
2022/06/05 09:17:28;;;;;;;11.10;10.38;;;;;;;29.97;33.63;100576.69;4930367;28;96752;-84
2022/06/05 09:19:56;;;;;;;11.68;10.88;;;;;;;30.20;33.64;100589.50;4927284;28;97132;-85
2022/06/05 09:22:32;;;;;;;10.70;10.00;;;;;;;30.12;33.90;100608.44;4944960;28;98622;-84
2022/06/05 09:25:22;;;;;;;10.98;9.90;;;;;;;30.54;34.20;100600.03;4925087;28;97492;-86
2022/06/05 09:28:11;;;;;;;10.57;9.80;;;;;;;30.67;33.27;100592.22;4933593;28;96817;-88
2022/06/05 09:31:11;;;;;;;11.70;10.70;;;;;;;30.70;32.53;100596.44;4919318;28;96949;-93
2022/06/05 09:33:38;;;;;;;11.98;11.07;;;;;;;30.82;32.40;100589.63;4946955;28;98109;-94
2022/06/05 09:36:07;;;;;;;11.35;10.52;;;;;;;30.43;32.92;100581.50;4905922;28;97993;-92
2022/06/05 09:38:40;;;;;;;11.30;10.38;;;;;;;30.32;32.95;100582.72;4933256;28;97987;-86
2022/06/05 09:41:09;;;;;;;12.55;11.48;;;;;;;30.01;33.76;100586.13;4940413;28;97420;-87
2022/06/05 09:43:37;;;;;;;12.38;11.27;;;;;;;29.75;33.95;100586.34;4937128;28;101501;-88
2022/06/05 09:46:10;;;;;;;11.25;10.45;;;;;;;29.68;33.91;100576.41;4936583;28;98049;-92
2022/06/05 09:48:58;;;;;;;11.38;10.32;;;;;;;29.39;34.87;100584.97;4934133;28;97034;-90
2022/06/05 09:51:24;;;;;;;10.90;10.20;;;;;;;29.43;34.26;100575.50;4928110;28;97222;-90
2022/06/05 09:54:25;;;;;;;10.90;9.93;;;;;;;29.48;34.55;100584.81;4930211;28;101430;-91
2022/06/05 09:59:49;;;;;;;10.82;10.02;;;;;;;29.43;35.01;100570.94;4953695;28;97373;-93
2022/06/05 10:02:15;;;;;;;10.85;9.95;;;;;;;29.44;34.77;100563.66;4950849;28;97359;-94
2022/06/05 10:04:41;;;;;;;11.20;10.15;;;;;;;29.54;33.84;100567.91;4959145;28;98480;-93
2022/06/05 10:07:16;;;;;;;10.85;10.07;;;;;;;29.00;34.46;100572.03;4944513;28;101565;-85
2022/06/05 10:09:45;;;;;;;9.77;9.15;;;;;;;28.87;35.47;100540.13;4949037;28;97536;-93
2022/06/05 10:12:27;;;;;;;11.23;10.32;;;;;;;28.98;34.92;100544.38;4940229;28;97376;-91
2022/06/05 10:15:03;;;;;;;11.27;10.25;;;;;;;28.84;34.30;100544.00;4963610;28;101411;-91
2022/06/05 10:17:35;;;;;;;12.00;10.88;;;;;;;28.55;35.76;100543.56;4950883;28;97560;-91
2022/06/05 10:20:12;;;;;;;10.82;10.13;;;;;;;28.49;36.30;100547.78;4980936;28;97283;-92
2022/06/05 10:23:00;;;;;;;10.90;9.88;;;;;;;28.31;36.36;100518.16;4960037;28;96871;-89
2022/06/05 10:25:35;;;;;;;10.93;10.23;;;;;;;28.27;35.88;100549.16;4961863;28;98154;-92
2022/06/05 10:28:09;;;;;;;10.23;9.57;;;;;;;27.95;35.51;100550.66;4971897;28;100509;-90
2022/06/05 10:30:39;;;;;;;10.35;9.52;;;;;;;27.95;36.12;100560.63;4967602;28;96855;-91
2022/06/05 10:33:26;;;;;;;10.80;10.10;;;;;;;28.01;34.94;100548.34;4960003;28;96661;-93
2022/06/05 10:36:10;;;;;;;10.23;9.57;;;;;;;28.02;34.46;100558.16;4950047;28;101325;-90
2022/06/05 10:38:52;;;;;;;10.63;9.80;;;;;;;27.94;34.05;100554.38;4980064;28;101373;-92
2022/06/05 10:41:30;;;;;;;11.02;10.32;;;;;;;27.68;34.47;100554.34;4953340;28;96919;-90
2022/06/05 10:44:10;;;;;;;10.15;9.55;;;;;;;27.54;35.66;100538.72;4984174;28;96833;-87
2022/06/05 10:46:39;;;;;;;10.45;9.68;;;;;;;27.67;34.86;100541.88;4959249;28;98088;-88
2022/06/05 10:49:20;;;;;;;10.40;9.60;;;;;;;27.62;34.99;100540.66;4897684;28;1202960;-94
2022/06/05 10:52:08;;;;;;;10.40;9.50;;;;;;;27.63;36.40;100539.63;4955295;28;97301;-91
2022/06/05 10:54:50;;;;;;;11.13;10.20;;;;;;;27.48;35.21;100528.56;4953318;28;96907;-93
2022/06/05 10:57:23;;;;;;;10.98;9.90;;;;;;;27.49;35.37;100525.75;4939170;28;101617;-93
2022/06/05 11:00:06;;;;;;;10.40;9.70;;;;;;;27.37;35.11;100515.34;4963045;28;100184;-92
2022/06/05 11:03:11;;;;;;;10.13;9.30;;;;;;;27.48;35.06;100520.50;4908426;28;97426;-91
2022/06/05 11:05:45;;;;;;;10.52;9.65;;;;;;;27.51;34.91;100521.00;4920043;28;96917;-91
2022/06/05 11:08:33;;;;;;;10.25;9.15;;;;;;;27.26;35.28;100509.22;4914577;28;101595;-86
2022/06/05 11:14:16;;;;;;;9.73;9.13;;;;;;;27.23;36.60;100506.00;4971920;28;96855;-91
2022/06/05 11:16:54;;;;;;;10.35;9.55;;;;;;;27.23;36.29;100509.53;4956558;28;96799;-93
2022/06/05 11:19:50;;;;;;;10.45;9.48;;;;;;;27.09;36.73;100507.34;4938591;28;101253;-90
2022/06/05 11:22:16;;;;;;;9.95;9.25;;;;;;;27.14;36.77;100502.34;4972174;28;98438;-91
2022/06/05 11:24:52;;;;;;;10.15;9.43;;;;;;;27.04;36.84;100488.09;4944357;28;96939;-87
2022/06/05 11:27:37;;;;;;;10.25;9.23;;;;;;;27.22;36.22;100483.56;4966191;28;97641;-88
2022/06/05 11:30:15;;;;;;;9.77;9.02;;;;;;;27.34;36.23;100484.16;4950906;28;100128;-89
2022/06/05 11:33:07;;;;;;;10.07;9.48;;;;;;;27.07;36.29;100480.56;4966411;28;100037;-90
2022/06/05 11:35:41;;;;;;;9.57;8.82;;;;;;;26.93;37.05;100461.41;4938719;28;96870;-91
2022/06/05 11:38:29;;;;;;;9.90;9.00;;;;;;;27.04;37.01;100488.09;4955277;28;96933;-92
2022/06/05 11:41:01;;;;;;;9.98;9.18;;;;;;;26.96;37.30;100485.31;4956121;28;98480;-91
2022/06/05 11:43:35;;;;;;;10.48;9.77;;;;;;;27.03;36.32;100471.09;4955730;28;101405;-89
2022/06/05 11:46:12;;;;;;;15.68;9.95;;;;;;;27.15;36.64;100478.94;4953247;28;97247;-91
2022/06/05 11:48:45;;;;;;;9.45;8.88;;;;;;;27.02;37.01;100476.63;4954292;28;97080;-91